createdAt,value
2018-03-06T00:00:35.265Z,100533.16
2018-03-06T00:03:04.823Z,100530.06
2018-03-06T00:05:34.113Z,100526.68
2018-03-06T00:08:03.721Z,100517.23
2018-03-06T00:10:33.226Z,100505.58
2018-03-06T00:13:02.832Z,100497.59
2018-03-06T00:15:32.365Z,100501.10
2018-03-06T00:18:01.723Z,100498.23
2018-03-06T00:20:31.034Z,100496.89
2018-03-06T00:23:00.551Z,100495.39
2018-03-06T00:25:29.646Z,100491.02
2018-03-06T00:27:58.954Z,100486.77
2018-03-06T00:30:28.562Z,100478.00
2018-03-06T00:32:57.761Z,100474.23
2018-03-06T00:35:27.413Z,100473.33
2018-03-06T00:37:56.800Z,100473.72
2018-03-06T00:40:25.972Z,100464.27
2018-03-06T00:42:55.261Z,100460.47
2018-03-06T00:45:25.665Z,100454.77
2018-03-06T00:47:55.253Z,100447.05
2018-03-06T00:50:24.558Z,100445.84
2018-03-06T00:52:53.802Z,100422.64
2018-03-06T00:55:23.107Z,100431.36
2018-03-06T00:57:52.598Z,100415.73
2018-03-06T01:00:22.011Z,100417.70
2018-03-06T01:02:51.375Z,100411.18
2018-03-06T01:05:20.502Z,100415.09
2018-03-06T01:07:49.553Z,100406.20
2018-03-06T01:10:18.938Z,100404.41
2018-03-06T01:12:48.003Z,100403.30
2018-03-06T01:15:17.296Z,100401.20
2018-03-06T01:17:46.337Z,100390.17
2018-03-06T01:20:15.644Z,100388.08
2018-03-06T01:22:44.889Z,100384.38
2018-03-06T01:25:14.290Z,100379.55
2018-03-06T01:27:44.055Z,100380.41
2018-03-06T01:30:13.285Z,100360.83
2018-03-06T01:32:42.457Z,100365.10
2018-03-06T01:35:11.607Z,100340.41
2018-03-06T01:37:40.793Z,100358.33
2018-03-06T01:40:10.137Z,100355.60
2018-03-06T01:42:39.392Z,100351.81
2018-03-06T01:45:08.661Z,100342.82
2018-03-06T01:47:38.041Z,100344.55
2018-03-06T01:50:07.400Z,100334.84
2018-03-06T01:52:36.949Z,100328.18
2018-03-06T01:55:06.818Z,100328.05
2018-03-06T01:57:36.045Z,100307.12
2018-03-06T02:00:05.330Z,100312.88
2018-03-06T02:02:34.527Z,100313.84
2018-03-06T02:05:03.831Z,100318.57
2018-03-06T02:07:32.809Z,100320.86
2018-03-06T02:10:02.116Z,100327.13
2018-03-06T02:12:31.519Z,100319.48
2018-03-06T02:15:00.749Z,100316.97
2018-03-06T02:17:30.224Z,100309.66
2018-03-06T02:19:59.639Z,100309.52
2018-03-06T02:22:28.717Z,100316.59
2018-03-06T02:24:57.982Z,100307.08
2018-03-06T02:27:27.135Z,100300.00
2018-03-06T02:29:56.234Z,100308.26
2018-03-06T02:32:25.265Z,100299.04
2018-03-06T02:34:54.666Z,100290.44
2018-03-06T02:37:24.109Z,100285.50
2018-03-06T02:39:53.337Z,100275.95
2018-03-06T02:42:22.506Z,100272.18
2018-03-06T02:44:51.825Z,100272.34
2018-03-06T02:47:21.219Z,100276.48
2018-03-06T02:49:50.428Z,100286.48
2018-03-06T02:52:19.436Z,100295.17
2018-03-06T02:54:48.496Z,100290.78
2018-03-06T02:57:18.163Z,100294.84
2018-03-06T02:59:47.361Z,100295.70
2018-03-06T03:02:16.501Z,100293.27
2018-03-06T03:04:45.462Z,100286.09
2018-03-06T03:07:14.693Z,100282.75
2018-03-06T03:09:43.942Z,100282.21
2018-03-06T03:12:13.120Z,100274.67
2018-03-06T03:14:42.285Z,100276.83
2018-03-06T03:17:11.753Z,100270.86
2018-03-06T03:19:41.700Z,100267.31
2018-03-06T03:22:10.941Z,100251.28
2018-03-06T03:24:40.269Z,100242.30
2018-03-06T03:27:09.578Z,100236.23
2018-03-06T03:29:38.920Z,100234.53
2018-03-06T03:32:08.085Z,100229.91
2018-03-06T03:34:37.622Z,100238.23
2018-03-06T03:37:07.521Z,100249.57
2018-03-06T03:39:36.622Z,100256.46
2018-03-06T03:42:05.862Z,100252.22
2018-03-06T03:44:35.321Z,100250.09
2018-03-06T03:47:04.395Z,100247.44
2018-03-06T03:49:33.821Z,100244.84
2018-03-06T03:52:03.272Z,100241.41
2018-03-06T03:54:32.629Z,100240.91
2018-03-06T03:57:01.870Z,100252.77
2018-03-06T03:59:31.343Z,100241.91
2018-03-06T04:02:00.661Z,100237.55
2018-03-06T04:04:29.887Z,100237.79
2018-03-06T04:06:59.346Z,100231.27
2018-03-06T04:09:28.299Z,100233.11
2018-03-06T04:11:57.257Z,100225.03
2018-03-06T04:14:26.634Z,100216.83
2018-03-06T04:16:55.760Z,100212.14
2018-03-06T04:19:25.529Z,100215.53
2018-03-06T04:21:54.634Z,100213.94
2018-03-06T04:24:23.721Z,100211.85
2018-03-06T04:26:52.789Z,100208.61
2018-03-06T04:29:22.265Z,100207.80
2018-03-06T04:31:51.625Z,100192.13
2018-03-06T04:34:20.985Z,100184.50
2018-03-06T04:36:50.373Z,100179.57
2018-03-06T04:39:19.837Z,100160.37
2018-03-06T04:41:49.201Z,100138.60
2018-03-06T04:44:18.409Z,100140.19
2018-03-06T04:46:47.453Z,100132.41
2018-03-06T04:49:16.833Z,100139.65
2018-03-06T04:51:46.280Z,100145.66
2018-03-06T04:54:15.365Z,100140.64
2018-03-06T04:56:44.711Z,100145.66
2018-03-06T04:59:14.156Z,100149.34
2018-03-06T05:01:43.702Z,100164.62
2018-03-06T05:04:12.873Z,100183.14
2018-03-06T05:06:42.095Z,100194.34
2018-03-06T05:09:11.699Z,100191.01
2018-03-06T05:11:40.769Z,100191.63
2018-03-06T05:14:09.987Z,100200.08
2018-03-06T05:16:39.441Z,100199.28
2018-03-06T05:19:08.524Z,100191.84
2018-03-06T05:21:37.617Z,100197.30
2018-03-06T05:24:07.097Z,100179.34
2018-03-06T05:26:36.299Z,100185.38
2018-03-06T05:29:05.537Z,100181.74
2018-03-06T05:31:34.755Z,100176.93
2018-03-06T05:34:03.953Z,100163.92
2018-03-06T05:36:32.986Z,100154.95
2018-03-06T05:39:02.137Z,100155.50
2018-03-06T05:41:31.218Z,100158.78
2018-03-06T05:44:00.340Z,100159.94
2018-03-06T05:46:29.721Z,100160.77
2018-03-06T05:48:59.356Z,100155.97
2018-03-06T05:51:28.629Z,100154.05
2018-03-06T05:53:58.188Z,100146.54
2018-03-06T05:56:27.533Z,100150.62
2018-03-06T05:58:56.597Z,100141.77
2018-03-06T06:01:26.033Z,100139.33
2018-03-06T06:03:55.300Z,100141.80
2018-03-06T06:06:24.775Z,100135.17
2018-03-06T06:08:54.141Z,100127.85
2018-03-06T06:11:23.749Z,100137.31
2018-03-06T06:13:52.873Z,100134.69
2018-03-06T06:16:22.102Z,100145.64
2018-03-06T06:18:51.860Z,100139.69
2018-03-06T06:21:21.217Z,100133.48
2018-03-06T06:23:50.410Z,100150.24
2018-03-06T06:26:20.164Z,100143.16
2018-03-06T06:28:49.167Z,100155.02
2018-03-06T06:31:18.458Z,100145.83
2018-03-06T06:33:47.611Z,100137.76
2018-03-06T06:36:17.019Z,100151.38
2018-03-06T06:38:46.702Z,100151.41
2018-03-06T06:41:16.191Z,100145.85
2018-03-06T06:43:45.697Z,100149.27
2018-03-06T06:46:14.877Z,100144.22
2018-03-06T06:48:44.595Z,100151.63
2018-03-06T06:51:13.884Z,100155.00
2018-03-06T07:08:18.250Z,100156.19
2018-03-06T07:10:47.313Z,100148.21
2018-03-06T07:13:16.405Z,100142.51
2018-03-06T07:15:45.656Z,100155.07
2018-03-06T07:18:14.762Z,100139.19
2018-03-06T07:20:43.967Z,100147.48
2018-03-06T07:23:13.237Z,100143.00
2018-03-06T07:25:42.562Z,100144.52
2018-03-06T07:28:11.760Z,100148.25
2018-03-06T07:30:40.697Z,100158.91
2018-03-06T07:33:12.205Z,100159.22
2018-03-06T07:35:41.622Z,100158.11
2018-03-06T07:38:10.972Z,100155.59
2018-03-06T07:40:40.261Z,100155.13
2018-03-06T07:43:09.409Z,100149.81
2018-03-06T07:45:39.573Z,100141.06
2018-03-06T07:48:08.755Z,100141.38
2018-03-06T07:50:38.401Z,100142.65
2018-03-06T07:53:07.850Z,100148.44
2018-03-06T07:55:38.224Z,100147.64
2018-03-06T07:58:07.739Z,100143.13
2018-03-06T08:00:37.249Z,100156.64
2018-03-06T08:03:06.230Z,100150.84
2018-03-06T08:05:35.533Z,100147.50
2018-03-06T08:08:04.798Z,100152.30
2018-03-06T08:10:34.181Z,100142.13
2018-03-06T08:13:03.173Z,100147.05
2018-03-06T08:15:32.387Z,100153.31
2018-03-06T08:18:02.073Z,100155.86
2018-03-06T08:20:31.476Z,100140.91
2018-03-06T08:23:01.130Z,100139.83
2018-03-06T08:25:30.498Z,100144.09
2018-03-06T08:27:59.952Z,100133.02
2018-03-06T08:30:29.209Z,100142.34
2018-03-06T08:32:59.925Z,100133.62
2018-03-06T08:35:29.178Z,100137.91
2018-03-06T08:37:58.547Z,100132.59
2018-03-06T08:40:27.738Z,100136.91
2018-03-06T08:42:57.077Z,100136.88
2018-03-06T08:45:27.323Z,100135.68
2018-03-06T08:47:56.656Z,100136.64
2018-03-06T08:50:26.086Z,100134.62
2018-03-06T08:52:55.471Z,100133.05
2018-03-06T08:55:24.870Z,100119.12
2018-03-06T08:57:54.337Z,100126.01
2018-03-06T09:00:23.671Z,100115.91
2018-03-06T09:02:53.529Z,100109.36
2018-03-06T09:05:22.894Z,100101.87
2018-03-06T09:07:52.099Z,100101.08
2018-03-06T09:10:21.378Z,100110.04
2018-03-06T09:12:50.549Z,100100.66
2018-03-06T09:15:19.859Z,100099.25
2018-03-06T09:17:49.090Z,100100.59
2018-03-06T09:20:18.282Z,100113.92
2018-03-06T09:22:47.317Z,100098.13
2018-03-06T09:25:16.526Z,100102.57
2018-03-06T09:27:45.779Z,100087.86
2018-03-06T09:30:15.073Z,100104.20
2018-03-06T09:32:44.386Z,100098.09
2018-03-06T09:35:13.628Z,100089.13
2018-03-06T09:37:42.868Z,100099.02
2018-03-06T09:40:11.877Z,100102.55
2018-03-06T09:42:41.223Z,100099.01
2018-03-06T09:45:10.983Z,100106.80
2018-03-06T09:47:40.273Z,100111.12
2018-03-06T09:50:09.681Z,100115.14
2018-03-06T09:52:38.984Z,100109.28
2018-03-06T09:55:08.315Z,100105.19
2018-03-06T09:57:37.786Z,100089.80
2018-03-06T10:00:07.303Z,100087.91
2018-03-06T10:02:36.597Z,100083.97
2018-03-06T10:18:15.058Z,100098.56
2018-03-06T10:20:44.358Z,100095.59
2018-03-06T10:23:13.689Z,100105.23
2018-03-06T10:25:43.053Z,100117.55
2018-03-06T10:28:12.566Z,100111.26
2018-03-06T10:30:41.865Z,100119.09
2018-03-06T10:33:11.337Z,100114.54
2018-03-06T10:35:40.712Z,100112.33
2018-03-06T10:38:09.865Z,100115.70
2018-03-06T10:40:39.065Z,100111.44
2018-03-06T10:43:08.081Z,100121.63
2018-03-06T10:45:37.253Z,100112.37
2018-03-06T10:48:06.457Z,100121.42
2018-03-06T10:50:35.868Z,100126.99
2018-03-06T10:53:05.512Z,100131.30
2018-03-06T10:55:34.651Z,100136.60
2018-03-06T10:58:03.999Z,100136.88
2018-03-06T11:00:38.617Z,100141.23
2018-03-06T11:03:07.834Z,100128.65
2018-03-06T11:05:37.109Z,100129.46
2018-03-06T11:08:06.409Z,100125.05
2018-03-06T11:10:35.847Z,100133.52
2018-03-06T11:13:04.957Z,100131.02
2018-03-06T11:15:34.498Z,100133.52
2018-03-06T11:18:03.819Z,100132.06
2018-03-06T11:20:33.569Z,100126.31
2018-03-06T11:23:03.013Z,100127.64
2018-03-06T11:25:32.119Z,100096.36
2018-03-06T11:28:01.611Z,100105.65
2018-03-06T11:30:30.974Z,100119.53
2018-03-06T11:33:00.409Z,100117.38
2018-03-06T11:35:29.957Z,100115.19
2018-03-06T11:37:59.663Z,100089.03
2018-03-06T11:40:28.938Z,100087.73
2018-03-06T11:42:58.045Z,100081.96
2018-03-06T11:45:27.291Z,100069.59
2018-03-06T11:47:56.673Z,100069.14
2018-03-06T11:50:26.257Z,100101.59
2018-03-06T11:52:55.898Z,100099.33
2018-03-06T11:55:25.361Z,100100.68
2018-03-06T11:57:55.221Z,100110.12
2018-03-06T12:00:24.697Z,100122.45
2018-03-06T12:02:53.982Z,100122.54
2018-03-06T12:05:23.291Z,100113.17
2018-03-06T12:07:52.895Z,100124.09
2018-03-06T12:10:22.801Z,100123.70
2018-03-06T12:12:52.409Z,100122.77
2018-03-06T12:15:21.811Z,100106.58
2018-03-06T12:17:51.261Z,100127.14
2018-03-06T12:20:20.621Z,100126.88
2018-03-06T12:22:49.761Z,100125.53
2018-03-06T12:25:19.367Z,100127.05
2018-03-06T12:27:48.869Z,100133.35
2018-03-06T12:30:17.939Z,100137.16
2018-03-06T12:32:47.139Z,100148.30
2018-03-06T12:35:16.629Z,100151.70
2018-03-06T12:37:45.973Z,100152.55
2018-03-06T12:40:16.105Z,100146.92
2018-03-06T12:42:45.538Z,100155.27
2018-03-06T12:45:14.822Z,100157.02
2018-03-06T12:47:44.113Z,100161.20
2018-03-06T12:50:13.466Z,100154.02
2018-03-06T12:52:42.861Z,100153.36
2018-03-06T12:55:12.119Z,100158.00
2018-03-06T12:57:41.226Z,100162.99
2018-03-06T13:00:10.605Z,100152.41
2018-03-06T13:02:40.005Z,100149.09
2018-03-06T13:05:09.262Z,100144.27
2018-03-06T13:07:38.939Z,100151.70
2018-03-06T13:10:08.481Z,100145.45
2018-03-06T13:12:37.714Z,100143.78
2018-03-06T13:15:07.242Z,100137.16
2018-03-06T13:17:36.525Z,100146.86
2018-03-06T13:20:05.889Z,100141.07
2018-03-06T13:22:35.289Z,100129.53
2018-03-06T13:25:04.701Z,100132.94
2018-03-06T13:27:34.033Z,100134.27
2018-03-06T13:30:03.701Z,100134.42
2018-03-06T13:32:32.857Z,100120.42
2018-03-06T13:35:02.130Z,100123.50
2018-03-06T13:37:31.296Z,100118.66
2018-03-06T13:40:00.701Z,100100.32
2018-03-06T13:42:30.013Z,100104.65
2018-03-06T13:44:59.347Z,100099.91
2018-03-06T13:47:28.780Z,100101.45
2018-03-06T13:49:58.237Z,100102.55
2018-03-06T13:52:27.617Z,100093.68
2018-03-06T13:54:56.913Z,100103.07
2018-03-06T13:57:27.092Z,100097.36
2018-03-06T13:59:56.477Z,100097.34
2018-03-06T14:02:25.679Z,100112.66
2018-03-06T14:04:54.669Z,100112.77
2018-03-06T14:07:25.677Z,100125.98
2018-03-06T14:09:54.765Z,100129.51
2018-03-06T14:12:23.965Z,100139.32
2018-03-06T14:14:53.269Z,100127.85
2018-03-06T14:17:22.481Z,100104.22
2018-03-06T14:19:51.976Z,100100.06
2018-03-06T14:22:21.307Z,100120.78
2018-03-06T14:24:50.428Z,100121.56
2018-03-06T14:27:19.617Z,100116.77
2018-03-06T14:29:48.967Z,100124.70
2018-03-06T14:32:18.525Z,100132.81
2018-03-06T14:34:48.285Z,100118.34
2018-03-06T14:37:17.334Z,100128.61
2018-03-06T14:39:46.477Z,100124.71
2018-03-06T14:42:15.677Z,100138.23
2018-03-06T14:44:44.932Z,100140.03
2018-03-06T14:47:14.195Z,100135.91
2018-03-06T14:49:43.685Z,100147.41
2018-03-06T14:52:12.779Z,100140.70
2018-03-06T14:54:41.722Z,100133.28
2018-03-06T14:57:10.781Z,100127.28
2018-03-06T14:59:40.118Z,100136.38
2018-03-06T15:02:09.463Z,100133.56
2018-03-06T15:04:38.869Z,100137.98
2018-03-06T15:07:08.150Z,100131.42
2018-03-06T15:09:37.391Z,100124.01
2018-03-06T15:12:06.773Z,100123.11
2018-03-06T15:14:36.295Z,100131.42
2018-03-06T15:17:05.581Z,100148.25
2018-03-06T15:19:35.234Z,100142.36
2018-03-06T15:22:04.955Z,100156.33
2018-03-06T15:24:34.458Z,100152.92
2018-03-06T15:27:03.731Z,100148.09
2018-03-06T15:29:33.209Z,100153.18
2018-03-06T15:32:02.827Z,100160.46
2018-03-06T15:34:32.057Z,100148.86
2018-03-06T15:37:01.300Z,100144.10
2018-03-06T15:39:30.441Z,100145.53
2018-03-06T15:41:59.821Z,100134.14
2018-03-06T15:44:29.217Z,100150.29
2018-03-06T15:46:58.977Z,100146.98
2018-03-06T15:49:28.645Z,100137.55
2018-03-06T15:51:58.345Z,100146.09
2018-03-06T15:54:27.653Z,100143.33
2018-03-06T15:56:56.947Z,100154.02
2018-03-06T15:59:26.679Z,100159.25
2018-03-06T16:01:56.270Z,100159.37
2018-03-06T16:04:25.787Z,100184.59
2018-03-06T16:06:55.222Z,100175.48
2018-03-06T16:09:24.840Z,100181.05
2018-03-06T16:11:54.327Z,100180.55
2018-03-06T16:14:23.494Z,100176.50
2018-03-06T16:16:52.992Z,100181.75
2018-03-06T16:19:22.621Z,100181.95
2018-03-06T16:21:52.023Z,100187.23
2018-03-06T16:24:21.628Z,100193.86
2018-03-06T16:26:51.283Z,100195.02
2018-03-06T16:29:20.634Z,100192.24
2018-03-06T16:31:50.006Z,100198.93
2018-03-06T16:34:19.411Z,100193.63
2018-03-06T16:36:48.602Z,100197.42
2018-03-06T16:39:17.741Z,100195.27
2018-03-06T16:41:46.970Z,100209.83
2018-03-06T16:44:16.461Z,100221.29
2018-03-06T16:46:45.515Z,100215.64
2018-03-06T16:49:14.789Z,100224.56
2018-03-06T16:51:44.442Z,100219.63
2018-03-06T16:54:13.631Z,100228.44
2018-03-06T16:56:42.806Z,100226.48
2018-03-06T16:59:12.173Z,100226.80
2018-03-06T17:01:41.719Z,100225.88
2018-03-06T17:04:10.974Z,100219.81
2018-03-06T17:06:40.444Z,100214.78
2018-03-06T17:09:09.551Z,100201.76
2018-03-06T17:11:38.827Z,100209.18
2018-03-06T17:14:08.182Z,100216.01
2018-03-06T17:16:38.378Z,100211.35
2018-03-06T17:19:07.869Z,100211.14
2018-03-06T17:21:37.471Z,100222.80
2018-03-06T17:24:06.560Z,100223.45
2018-03-06T17:26:35.837Z,100225.23
2018-03-06T17:29:05.115Z,100217.88
2018-03-06T17:31:34.618Z,100229.30
2018-03-06T17:34:03.737Z,100216.47
2018-03-06T17:36:33.339Z,100219.03
2018-03-06T17:39:02.765Z,100221.70
2018-03-06T17:41:31.955Z,100211.70
2018-03-06T17:44:01.746Z,100200.48
2018-03-06T17:46:31.076Z,100188.78
2018-03-06T17:49:00.558Z,100193.17
2018-03-06T17:51:30.466Z,100194.89
2018-03-06T17:54:00.144Z,100197.84
2018-03-06T17:56:30.255Z,100205.41
2018-03-06T17:58:59.481Z,100210.54
2018-03-06T18:01:29.054Z,100218.38
2018-03-06T18:03:58.177Z,100229.61
2018-03-06T18:06:27.802Z,100230.26
2018-03-06T18:08:57.318Z,100221.22
2018-03-06T18:11:26.665Z,100220.56
2018-03-06T18:13:55.965Z,100213.31
2018-03-06T18:16:25.577Z,100207.94
2018-03-06T18:18:54.726Z,100208.18
2018-03-06T18:21:24.145Z,100205.58
2018-03-06T18:23:53.101Z,100208.69
2018-03-06T18:26:22.379Z,100224.71
2018-03-06T18:28:52.414Z,100231.95
2018-03-06T18:31:21.725Z,100225.28
2018-03-06T18:33:50.926Z,100229.97
2018-03-06T18:36:20.322Z,100231.45
2018-03-06T18:38:49.707Z,100233.23
2018-03-06T18:41:19.293Z,100240.67
2018-03-06T18:43:48.811Z,100236.94
2018-03-06T18:46:18.312Z,100237.52
2018-03-06T18:48:47.814Z,100237.13
2018-03-06T18:51:17.009Z,100231.02
2018-03-06T18:53:46.269Z,100237.86
2018-03-06T18:56:15.597Z,100248.31
2018-03-06T18:58:44.578Z,100244.23
2018-03-06T19:04:30.477Z,100222.48
2018-03-06T19:07:08.631Z,100223.66
2018-03-06T19:09:37.573Z,100234.42
2018-03-06T19:12:06.715Z,100226.50
2018-03-06T19:14:35.960Z,100216.94
2018-03-06T19:17:05.187Z,100236.98
2018-03-06T19:19:34.389Z,100230.36
2018-03-06T19:22:03.503Z,100231.01
2018-03-06T19:24:32.741Z,100228.38
2018-03-06T19:27:02.091Z,100227.03
2018-03-06T19:29:31.509Z,100227.58
2018-03-06T19:32:00.766Z,100220.06
2018-03-06T19:34:30.212Z,100222.14
2018-03-06T19:36:59.518Z,100231.96
2018-03-06T19:39:28.893Z,100225.14
2018-03-06T19:41:58.189Z,100230.21
2018-03-06T19:44:27.850Z,100230.92
2018-03-06T19:46:57.025Z,100232.21
2018-03-06T19:49:26.128Z,100229.62
2018-03-06T19:51:55.397Z,100228.27
2018-03-06T19:54:24.457Z,100225.59
2018-03-06T19:56:53.634Z,100221.70
2018-03-06T19:59:22.581Z,100218.01
2018-03-06T20:01:51.715Z,100222.41
2018-03-06T20:04:20.926Z,100215.68
2018-03-06T20:06:50.222Z,100202.63
2018-03-06T20:09:19.343Z,100194.77
2018-03-06T20:11:48.614Z,100202.30
2018-03-06T20:14:23.550Z,100199.60
2018-03-06T20:16:52.531Z,100201.62
2018-03-06T20:19:27.820Z,100196.06
2018-03-06T20:21:57.130Z,100210.89
2018-03-06T20:24:32.125Z,100213.44
2018-03-06T20:27:01.298Z,100217.31
2018-03-06T20:29:30.501Z,100199.48
2018-03-06T20:32:05.250Z,100211.41
2018-03-06T20:34:34.743Z,100198.55
2018-03-06T20:37:04.238Z,100213.41
2018-03-06T20:39:39.127Z,100195.28
2018-03-06T20:42:08.369Z,100201.44
2018-03-06T20:44:37.794Z,100182.91
2018-03-06T20:47:12.591Z,100176.92
2018-03-06T20:49:41.706Z,100167.06
2018-03-06T20:52:11.286Z,100169.13
2018-03-06T20:54:46.173Z,100154.03
2018-03-06T20:57:15.453Z,100150.53
2018-03-06T20:59:44.675Z,100147.25
2018-03-06T21:02:14.158Z,100156.44
2018-03-06T21:04:43.553Z,100143.15
2018-03-06T21:07:12.847Z,100139.89
2018-03-06T21:09:42.271Z,100137.95
2018-03-06T21:12:11.358Z,100141.48
2018-03-06T21:14:40.706Z,100147.42
2018-03-06T21:17:10.254Z,100146.32
2018-03-06T21:19:39.901Z,100131.20
2018-03-06T21:22:09.161Z,100135.81
2018-03-06T21:24:39.030Z,100128.58
2018-03-06T21:27:08.681Z,100125.72
2018-03-06T21:29:38.100Z,100127.96
2018-03-06T21:32:07.565Z,100123.89
2018-03-06T21:34:37.073Z,100119.66
2018-03-06T21:37:06.361Z,100113.45
2018-03-06T21:39:35.551Z,100112.45
2018-03-06T21:42:04.820Z,100110.82
2018-03-06T21:44:33.978Z,100104.20
2018-03-06T21:47:03.269Z,100101.09
2018-03-06T21:49:32.401Z,100101.84
2018-03-06T21:52:01.464Z,100116.91
2018-03-06T21:54:30.695Z,100118.51
2018-03-06T21:56:59.770Z,100118.36
2018-03-06T21:59:28.980Z,100116.84
2018-03-06T22:01:58.291Z,100109.64
2018-03-06T22:04:27.601Z,100109.16
2018-03-06T22:06:56.924Z,100118.62
2018-03-06T22:09:26.140Z,100112.73
2018-03-06T22:11:55.503Z,100125.00
2018-03-06T22:14:24.585Z,100111.80
2018-03-06T22:16:53.730Z,100102.88
2018-03-06T22:19:22.934Z,100087.93
2018-03-06T22:21:52.277Z,100069.98
2018-03-06T22:24:21.521Z,100070.55
2018-03-06T22:26:50.916Z,100071.12
2018-03-06T22:29:20.039Z,100063.58
2018-03-06T22:31:49.218Z,100069.02
2018-03-06T22:34:18.636Z,100069.55
2018-03-06T22:36:48.188Z,100074.56
2018-03-06T22:39:17.803Z,100059.49
2018-03-06T22:41:47.401Z,100051.06
2018-03-06T22:44:16.640Z,100031.06
2018-03-06T22:46:46.223Z,100026.09
2018-03-06T22:49:15.489Z,100034.91
2018-03-06T22:51:44.544Z,100025.48
2018-03-06T22:54:13.823Z,100029.39
2018-03-06T22:56:43.205Z,100025.45
2018-03-06T22:59:12.310Z,100023.09
2018-03-06T23:01:41.485Z,100020.77
2018-03-06T23:04:10.797Z,100030.30
2018-03-06T23:06:40.033Z,100021.81
2018-03-06T23:09:09.404Z,100030.77
2018-03-06T23:11:38.705Z,100023.36
2018-03-06T23:14:07.813Z,100026.30
2018-03-06T23:16:37.101Z,100013.78
2018-03-06T23:19:06.343Z,99995.95
2018-03-06T23:21:35.493Z,99998.80
2018-03-06T23:24:04.897Z,99993.43
2018-03-06T23:26:34.505Z,99987.89
2018-03-06T23:29:04.174Z,99991.92
2018-03-06T23:31:33.313Z,100003.22
2018-03-06T23:34:02.739Z,100011.92
2018-03-06T23:36:31.883Z,100014.91
2018-03-06T23:39:00.973Z,100013.66
2018-03-06T23:41:30.209Z,100006.39
2018-03-06T23:43:59.667Z,100001.16
2018-03-06T23:46:28.955Z,99998.02
2018-03-06T23:48:58.161Z,99993.48
2018-03-06T23:51:27.547Z,99987.54
2018-03-06T23:53:56.926Z,99997.28
2018-03-06T23:56:26.217Z,100000.27
2018-03-06T23:58:55.929Z,100003.27
